createdAt,value
2023-05-21T00:02:26.521Z,73.20
2023-05-21T00:04:55.270Z,73.20
2023-05-21T00:07:23.539Z,73.20
2023-05-21T00:09:53.481Z,73.20
2023-05-21T00:12:21.433Z,73.00
2023-05-21T00:14:49.624Z,73.10
2023-05-21T00:17:18.304Z,73.30
2023-05-21T00:19:48.106Z,73.70
2023-05-21T00:22:16.485Z,73.70
2023-05-21T00:24:47.642Z,73.80
2023-05-21T00:27:15.641Z,73.80
2023-05-21T00:29:44.554Z,73.80
2023-05-21T00:32:12.700Z,73.60
2023-05-21T00:34:41.523Z,73.50
2023-05-21T00:37:10.157Z,73.60
2023-05-21T00:39:38.816Z,73.70
2023-05-21T00:42:06.901Z,73.80
2023-05-21T00:44:35.884Z,73.80
2023-05-21T00:47:05.082Z,73.90
2023-05-21T00:49:33.372Z,73.90
2023-05-21T00:52:01.935Z,73.90
2023-05-21T00:54:31.339Z,74.00
2023-05-21T00:57:00.447Z,74.00
2023-05-21T00:59:29.040Z,74.00
2023-05-21T01:01:57.331Z,74.20
2023-05-21T01:04:25.997Z,74.20
2023-05-21T01:06:53.759Z,74.50
2023-05-21T01:09:22.357Z,74.70
2023-05-21T01:11:52.159Z,74.80
2023-05-21T01:14:21.162Z,74.80
2023-05-21T01:16:50.644Z,74.80
2023-05-21T01:19:24.689Z,74.80
2023-05-21T01:21:56.624Z,74.90
2023-05-21T01:24:24.829Z,74.90
2023-05-21T01:26:52.667Z,75.10
2023-05-21T01:29:21.189Z,75.50
2023-05-21T01:32:31.780Z,75.90
2023-05-21T01:35:13.712Z,75.90
2023-05-21T01:37:51.848Z,75.90
2023-05-21T01:40:38.692Z,75.80
2023-05-21T01:43:07.619Z,75.70
2023-05-21T01:45:39.911Z,75.70
2023-05-21T01:48:09.556Z,75.80
2023-05-21T01:50:39.518Z,75.70
2023-05-21T01:53:07.606Z,75.80
2023-05-21T01:55:36.233Z,75.80
2023-05-21T01:58:04.122Z,75.80
2023-05-21T02:00:32.959Z,75.80
2023-05-21T02:03:02.555Z,75.70
2023-05-21T02:05:30.837Z,75.80
2023-05-21T02:08:00.554Z,75.90
2023-05-21T02:10:29.621Z,76.00
2023-05-21T02:12:57.613Z,76.10
2023-05-21T02:15:26.075Z,76.20
2023-05-21T02:17:54.335Z,76.40
2023-05-21T02:20:23.163Z,76.50
2023-05-21T02:22:51.130Z,76.50
2023-05-21T02:25:20.158Z,76.50
2023-05-21T02:27:53.111Z,76.70
2023-05-21T02:30:21.711Z,76.70
2023-05-21T02:32:50.197Z,77.00
2023-05-21T02:35:18.451Z,77.00
2023-05-21T02:37:46.329Z,77.10
2023-05-21T02:40:16.571Z,77.20
2023-05-21T02:42:44.408Z,77.20
2023-05-21T02:45:17.190Z,77.10
2023-05-21T02:47:45.191Z,77.20
2023-05-21T02:50:15.223Z,77.10
2023-05-21T02:52:53.625Z,77.10
2023-05-21T02:55:23.217Z,77.10
2023-05-21T02:57:51.700Z,77.10
2023-05-21T03:00:19.964Z,77.20
2023-05-21T03:02:48.318Z,77.20
2023-05-21T03:05:16.809Z,77.20
2023-05-21T03:07:45.753Z,77.30
2023-05-21T03:10:13.989Z,77.30
2023-05-21T03:12:42.055Z,77.20
2023-05-21T03:15:11.165Z,77.20
2023-05-21T03:17:39.076Z,77.40
2023-05-21T03:20:09.163Z,77.50
2023-05-21T03:22:37.926Z,77.60
2023-05-21T03:25:06.450Z,77.60
2023-05-21T03:27:34.183Z,77.70
2023-05-21T03:30:06.858Z,77.70
2023-05-21T03:32:45.334Z,77.80
2023-05-21T03:35:13.778Z,78.00
2023-05-21T03:37:42.146Z,78.20
2023-05-21T03:40:10.921Z,78.20
2023-05-21T03:42:41.052Z,78.30
2023-05-21T03:45:09.733Z,78.20
2023-05-21T03:47:58.425Z,78.20
2023-05-21T03:50:26.763Z,78.30
2023-05-21T03:52:54.645Z,78.30
2023-05-21T03:55:23.009Z,78.40
2023-05-21T03:57:51.199Z,78.50
2023-05-21T04:00:19.689Z,78.50
2023-05-21T04:02:48.684Z,78.60
2023-05-21T04:05:18.513Z,78.60
2023-05-21T04:07:46.682Z,78.60
2023-05-21T04:10:15.974Z,78.70
2023-05-21T04:12:43.857Z,78.60
2023-05-21T04:15:12.820Z,78.60
2023-05-21T04:17:40.720Z,78.50
2023-05-21T04:20:09.480Z,78.40
2023-05-21T04:22:37.551Z,78.20
2023-05-21T04:25:06.135Z,78.20
2023-05-21T04:27:39.728Z,78.20
2023-05-21T04:30:10.067Z,78.30
2023-05-21T04:32:38.759Z,78.30
2023-05-21T04:35:09.076Z,78.20
2023-05-21T04:37:37.280Z,78.20
2023-05-21T04:40:06.873Z,77.70
2023-05-21T04:42:35.035Z,77.90
2023-05-21T04:45:04.334Z,77.90
2023-05-21T04:47:35.980Z,77.70
2023-05-21T04:50:06.633Z,77.50
2023-05-21T04:52:35.137Z,77.50
2023-05-21T04:55:03.997Z,77.30
2023-05-21T04:57:31.871Z,77.00
2023-05-21T05:00:01.598Z,77.00
2023-05-21T05:02:33.483Z,77.00
2023-05-21T05:05:01.920Z,76.50
2023-05-21T05:07:30.128Z,76.70
2023-05-21T05:09:58.371Z,76.50
2023-05-21T05:12:27.272Z,76.20
2023-05-21T05:14:55.549Z,75.30
2023-05-21T05:17:24.930Z,75.50
2023-05-21T05:19:53.534Z,76.10
2023-05-21T05:22:21.406Z,76.00
2023-05-21T05:24:49.706Z,75.50
2023-05-21T05:27:18.397Z,75.40
2023-05-21T05:29:48.479Z,75.00
2023-05-21T05:32:16.363Z,74.50
2023-05-21T05:34:46.663Z,74.70
2023-05-21T05:37:14.653Z,74.70
2023-05-21T05:39:42.919Z,73.60
2023-05-21T05:42:11.101Z,73.20
2023-05-21T05:44:39.482Z,73.10
2023-05-21T05:47:11.034Z,72.80
2023-05-21T05:49:41.384Z,72.40
2023-05-21T05:52:09.530Z,72.20
2023-05-21T05:54:38.852Z,72.30
2023-05-21T05:57:06.831Z,71.80
2023-05-21T05:59:36.299Z,71.30
2023-05-21T06:02:06.119Z,71.40
2023-05-21T06:04:34.807Z,71.00
2023-05-21T06:07:02.795Z,70.10
2023-05-21T06:09:31.573Z,69.40
2023-05-21T06:11:59.540Z,69.40
2023-05-21T06:14:28.005Z,69.30
2023-05-21T06:16:55.886Z,69.50
2023-05-21T06:19:24.789Z,69.80
2023-05-21T06:21:53.163Z,69.00
2023-05-21T06:24:21.642Z,68.60
2023-05-21T06:26:49.714Z,68.20
2023-05-21T06:29:18.391Z,67.40
2023-05-21T06:31:52.349Z,67.50
2023-05-21T06:34:26.940Z,67.80
2023-05-21T06:37:25.934Z,66.90
2023-05-21T06:39:55.564Z,65.00
2023-05-21T06:42:23.814Z,66.00
2023-05-21T06:45:14.721Z,65.10
2023-05-21T06:47:45.509Z,64.90
2023-05-21T06:50:15.374Z,65.00
2023-05-21T06:52:44.476Z,65.00
2023-05-21T06:55:13.696Z,63.00
2023-05-21T06:58:17.275Z,63.20
2023-05-21T07:00:46.157Z,63.40
2023-05-21T07:03:14.356Z,62.50
2023-05-21T07:05:43.107Z,61.70
2023-05-21T07:08:12.253Z,61.70
2023-05-21T07:10:41.050Z,61.50
2023-05-21T07:13:10.956Z,61.00
2023-05-21T07:15:40.781Z,60.30
2023-05-21T07:18:08.703Z,60.10
2023-05-21T07:20:36.988Z,60.10
2023-05-21T07:23:06.994Z,59.90
2023-05-21T07:25:35.652Z,60.00
2023-05-21T07:28:05.879Z,60.00
2023-05-21T07:30:34.937Z,59.80
2023-05-21T07:33:04.463Z,58.80
2023-05-21T07:35:32.804Z,58.90
2023-05-21T07:38:00.852Z,58.70
2023-05-21T07:40:28.959Z,58.30
2023-05-21T07:42:56.866Z,58.30
2023-05-21T07:45:29.390Z,58.00
2023-05-21T07:47:57.529Z,57.30
2023-05-21T07:50:26.832Z,57.30
2023-05-21T07:52:55.978Z,57.10
2023-05-21T07:55:24.481Z,56.50
2023-05-21T07:57:53.837Z,55.90
2023-05-21T08:00:27.617Z,55.60
2023-05-21T08:02:58.251Z,55.20
2023-05-21T08:05:27.472Z,55.50
2023-05-21T08:07:55.377Z,55.30
2023-05-21T08:10:24.138Z,54.80
2023-05-21T08:12:54.139Z,55.20
2023-05-21T08:15:22.710Z,54.90
2023-05-21T08:17:50.677Z,54.30
2023-05-21T08:20:23.938Z,53.90
2023-05-21T08:22:51.810Z,52.60
2023-05-21T08:25:20.584Z,52.30
2023-05-21T08:27:50.963Z,52.60
2023-05-21T08:30:21.492Z,52.70
2023-05-21T08:32:50.443Z,52.70
2023-05-21T08:35:21.439Z,52.50
2023-05-21T08:38:04.977Z,52.10
2023-05-21T08:40:53.850Z,51.50
2023-05-21T08:43:22.004Z,50.50
2023-05-21T08:45:55.382Z,50.80
2023-05-21T08:48:26.566Z,50.30
2023-05-21T08:50:55.753Z,50.00
2023-05-21T08:53:33.675Z,49.10
2023-05-21T08:56:03.061Z,49.30
2023-05-21T08:58:47.537Z,48.80
2023-05-21T09:01:19.631Z,48.10
2023-05-21T09:03:57.109Z,48.40
2023-05-21T09:06:27.717Z,48.20
2023-05-21T09:09:23.476Z,46.70
2023-05-21T09:11:51.709Z,47.50
2023-05-21T09:14:21.948Z,48.00
2023-05-21T09:17:16.625Z,47.90
2023-05-21T09:20:14.971Z,47.50
2023-05-21T09:22:52.413Z,45.70
2023-05-21T09:25:30.117Z,46.50
2023-05-21T09:28:03.120Z,45.70
2023-05-21T09:30:32.591Z,46.10
2023-05-21T09:33:04.501Z,46.20
2023-05-21T09:35:34.854Z,45.70
2023-05-21T09:38:10.026Z,46.10
2023-05-21T09:40:43.720Z,45.30
2023-05-21T09:43:16.361Z,45.80
2023-05-21T09:45:55.176Z,46.20
2023-05-21T09:48:42.219Z,45.80
2023-05-21T09:51:21.587Z,45.70
2023-05-21T09:53:52.821Z,44.40
2023-05-21T09:56:25.087Z,43.80
2023-05-21T09:58:55.328Z,44.70
2023-05-21T10:01:25.343Z,44.90
2023-05-21T10:03:58.901Z,45.00
2023-05-21T10:06:35.027Z,45.10
2023-05-21T10:09:10.940Z,44.90
2023-05-21T10:11:42.419Z,45.10
2023-05-21T10:14:17.461Z,45.20
2023-05-21T10:16:46.867Z,45.70
2023-05-21T10:19:16.467Z,45.60
2023-05-21T10:21:46.079Z,46.20
2023-05-21T10:24:15.874Z,46.90
2023-05-21T10:26:45.173Z,47.70
2023-05-21T10:29:18.145Z,48.20
2023-05-21T10:31:50.343Z,48.80
2023-05-21T10:34:19.561Z,49.40
2023-05-21T10:36:49.758Z,49.60
2023-05-21T10:39:20.264Z,49.50
2023-05-21T10:42:00.429Z,49.60
2023-05-21T10:44:41.428Z,49.50
2023-05-21T10:47:39.499Z,49.50
2023-05-21T10:50:29.691Z,49.70
2023-05-21T10:53:25.412Z,49.90
2023-05-21T10:56:12.020Z,49.80
2023-05-21T10:59:04.856Z,49.50
2023-05-21T11:01:37.110Z,49.40
2023-05-21T11:04:07.984Z,49.20
2023-05-21T11:06:36.065Z,49.10
2023-05-21T11:09:14.099Z,49.00
2023-05-21T11:11:53.122Z,48.80
2023-05-21T11:14:36.091Z,48.60
2023-05-21T11:17:07.105Z,48.60
2023-05-21T11:19:39.326Z,48.60
2023-05-21T11:22:21.079Z,48.70
2023-05-21T11:24:53.794Z,48.60
2023-05-21T11:27:38.722Z,48.20
2023-05-21T11:30:08.950Z,48.00
2023-05-21T11:33:01.710Z,47.80
2023-05-21T11:35:29.432Z,48.10
2023-05-21T11:37:57.546Z,48.20
2023-05-21T11:40:27.630Z,48.20
2023-05-21T11:42:56.385Z,47.90
2023-05-21T11:45:28.828Z,48.20
2023-05-21T11:47:57.449Z,47.60
2023-05-21T11:50:26.106Z,47.60
2023-05-21T11:52:55.375Z,47.30
2023-05-21T11:55:26.264Z,46.80
2023-05-21T11:57:55.877Z,46.50
2023-05-21T12:00:23.714Z,46.70
2023-05-21T12:02:53.092Z,46.50
2023-05-21T12:05:21.761Z,46.80
2023-05-21T12:07:50.688Z,46.60
2023-05-21T12:10:22.191Z,45.90
2023-05-21T12:12:56.430Z,45.00
2023-05-21T12:15:26.629Z,45.00
2023-05-21T12:17:55.594Z,45.40
2023-05-21T12:20:24.191Z,45.50
2023-05-21T12:22:52.473Z,45.40
2023-05-21T12:25:21.620Z,44.80
2023-05-21T12:27:52.940Z,44.60
2023-05-21T12:30:21.694Z,44.60
2023-05-21T12:32:49.961Z,44.90
2023-05-21T12:35:23.778Z,44.90
2023-05-21T12:37:53.114Z,45.00
2023-05-21T12:40:22.529Z,44.70
2023-05-21T12:42:52.068Z,44.60
2023-05-21T12:45:22.338Z,44.80
2023-05-21T12:47:56.573Z,44.90
2023-05-21T12:50:24.660Z,44.70
2023-05-21T12:52:55.462Z,44.80
2023-05-21T12:55:28.571Z,44.60
2023-05-21T12:58:05.944Z,44.50
2023-05-21T13:00:36.438Z,44.70
2023-05-21T13:03:06.894Z,44.70
2023-05-21T13:05:36.004Z,44.70
2023-05-21T13:08:04.353Z,44.70
2023-05-21T13:10:32.436Z,44.70
2023-05-21T13:13:00.816Z,45.00
2023-05-21T13:15:28.672Z,45.10
2023-05-21T13:17:58.610Z,45.30
2023-05-21T13:20:27.802Z,44.80
2023-05-21T13:22:55.952Z,45.30
2023-05-21T13:25:25.435Z,45.50
2023-05-21T13:27:53.855Z,45.40
2023-05-21T13:30:22.519Z,45.40
2023-05-21T13:32:50.854Z,45.50
2023-05-21T13:35:18.849Z,45.50
2023-05-21T13:37:49.204Z,45.70
2023-05-21T13:40:17.378Z,45.90
2023-05-21T13:42:47.701Z,46.10
2023-05-21T13:45:18.119Z,46.10
2023-05-21T13:47:48.165Z,46.10
2023-05-21T13:50:16.667Z,46.20
2023-05-21T13:52:45.251Z,46.40
2023-05-21T13:55:13.428Z,46.50
2023-05-21T13:57:42.035Z,46.50
2023-05-21T14:00:12.754Z,46.40
2023-05-21T14:02:43.352Z,46.40
2023-05-21T14:05:12.418Z,46.50
2023-05-21T14:07:40.817Z,46.50
2023-05-21T14:10:09.143Z,46.50
2023-05-21T14:12:38.720Z,46.50
2023-05-21T14:15:07.183Z,46.50
2023-05-21T14:17:35.417Z,46.60
2023-05-21T14:20:03.403Z,46.60
2023-05-21T14:22:31.366Z,46.70
2023-05-21T14:24:59.171Z,46.80
2023-05-21T14:27:27.129Z,46.90
2023-05-21T14:29:54.943Z,46.80
2023-05-21T14:32:24.611Z,46.90
2023-05-21T14:34:52.464Z,46.90
2023-05-21T14:37:20.573Z,47.00
2023-05-21T14:39:48.327Z,47.00
2023-05-21T14:42:16.449Z,47.20
2023-05-21T14:44:44.209Z,47.10
2023-05-21T14:47:12.457Z,47.10
2023-05-21T14:49:40.150Z,47.10
2023-05-21T14:52:08.191Z,47.10
2023-05-21T14:54:36.539Z,47.10
2023-05-21T14:57:04.861Z,47.20
2023-05-21T14:59:32.552Z,47.20
2023-05-21T15:02:00.757Z,47.10
2023-05-21T15:04:28.536Z,46.90
2023-05-21T15:06:56.838Z,47.10
2023-05-21T15:09:24.532Z,47.10
2023-05-21T15:11:53.934Z,47.20
2023-05-21T15:14:21.648Z,47.30
2023-05-21T15:16:49.986Z,47.40
2023-05-21T15:19:17.881Z,47.50
2023-05-21T15:21:47.455Z,47.50
2023-05-21T15:24:15.368Z,47.50
2023-05-21T15:26:43.456Z,47.60
2023-05-21T15:29:11.152Z,47.60
2023-05-21T15:31:39.725Z,47.70
2023-05-21T15:34:07.833Z,47.70
2023-05-21T15:36:36.785Z,47.80
2023-05-21T15:39:06.375Z,47.90
2023-05-21T15:41:39.508Z,47.90
2023-05-21T15:44:07.381Z,47.90
2023-05-21T15:46:35.741Z,47.90
2023-05-21T15:49:03.747Z,47.90
2023-05-21T15:51:32.167Z,48.00
2023-05-21T15:54:02.862Z,48.00
2023-05-21T15:56:31.165Z,48.00
2023-05-21T15:59:04.433Z,48.00
2023-05-21T16:01:33.684Z,48.00
2023-05-21T16:04:03.587Z,48.00
2023-05-21T16:06:40.350Z,48.10
2023-05-21T16:09:08.054Z,48.20
2023-05-21T16:11:37.893Z,48.20
2023-05-21T16:14:05.588Z,48.20
2023-05-21T16:16:34.966Z,48.20
2023-05-21T16:19:03.914Z,48.20
2023-05-21T16:21:32.416Z,48.20
2023-05-21T16:24:00.429Z,48.30
2023-05-21T16:26:33.435Z,48.30
2023-05-21T16:29:02.316Z,48.40
2023-05-21T16:31:32.299Z,48.40
2023-05-21T16:34:02.366Z,48.40
2023-05-21T16:36:31.272Z,48.50
2023-05-21T16:39:01.926Z,48.50
2023-05-21T16:41:29.988Z,48.50
2023-05-21T16:44:01.653Z,48.50
2023-05-21T16:46:35.151Z,48.60
2023-05-21T16:49:05.598Z,48.60
2023-05-21T16:51:34.379Z,48.70
2023-05-21T16:54:07.045Z,48.70
2023-05-21T16:56:36.414Z,48.70
2023-05-21T16:59:04.195Z,48.70
2023-05-21T17:01:33.138Z,48.70
2023-05-21T17:04:01.375Z,48.80
2023-05-21T17:06:30.687Z,48.80
2023-05-21T17:09:23.848Z,48.80
2023-05-21T17:11:51.989Z,48.80
2023-05-21T17:14:32.610Z,48.90
2023-05-21T17:17:02.578Z,49.00
2023-05-21T17:19:30.595Z,49.00
2023-05-21T17:21:59.047Z,49.10
2023-05-21T17:24:26.988Z,49.10
2023-05-21T17:26:55.080Z,49.20
2023-05-21T17:29:22.847Z,49.20
2023-05-21T17:31:51.144Z,49.20
2023-05-21T17:34:19.018Z,49.40
2023-05-21T17:36:48.672Z,49.40
2023-05-21T17:39:16.372Z,49.50
2023-05-21T17:41:44.609Z,49.50
2023-05-21T17:44:13.831Z,49.60
2023-05-21T17:46:42.021Z,49.60
2023-05-21T17:49:09.890Z,49.70
2023-05-21T17:51:39.052Z,50.00
2023-05-21T17:54:08.430Z,50.10
2023-05-21T17:56:39.720Z,50.30
2023-05-21T17:59:09.429Z,50.40
2023-05-21T18:01:40.306Z,50.50
2023-05-21T18:04:11.087Z,50.60
2023-05-21T18:06:40.259Z,50.70
2023-05-21T18:09:08.325Z,50.70
2023-05-21T18:11:37.091Z,50.80
2023-05-21T18:14:05.034Z,51.00
2023-05-21T18:16:33.350Z,51.10
2023-05-21T18:19:05.837Z,51.20
2023-05-21T18:21:37.460Z,51.30
2023-05-21T18:24:06.791Z,51.40
2023-05-21T18:26:34.825Z,51.50
2023-05-21T18:29:02.574Z,51.50
2023-05-21T18:31:31.606Z,51.50
2023-05-21T18:33:59.454Z,51.50
2023-05-21T18:36:28.621Z,51.50
2023-05-21T18:38:58.037Z,51.60
2023-05-21T18:41:26.644Z,51.60
2023-05-21T18:43:54.368Z,51.60
2023-05-21T18:46:22.431Z,51.60
2023-05-21T18:48:50.268Z,51.70
2023-05-21T18:51:18.350Z,51.70
2023-05-21T18:53:46.131Z,51.70
2023-05-21T18:56:14.253Z,51.80
2023-05-21T18:58:42.535Z,51.80
2023-05-21T19:01:11.048Z,51.90
2023-05-21T19:03:39.680Z,51.90
2023-05-21T19:06:09.379Z,52.00
2023-05-21T19:08:37.402Z,52.00
2023-05-21T19:11:07.293Z,52.00
2023-05-21T19:13:35.964Z,52.10
2023-05-21T19:16:04.161Z,52.20
2023-05-21T19:18:32.610Z,52.20
2023-05-21T19:21:01.287Z,52.20
2023-05-21T19:23:35.768Z,52.20
2023-05-21T19:26:10.394Z,52.30
2023-05-21T19:28:38.406Z,52.30
2023-05-21T19:31:06.854Z,52.30
2023-05-21T19:33:35.467Z,52.30
2023-05-21T19:36:06.464Z,52.40
2023-05-21T19:38:39.575Z,52.50
2023-05-21T19:41:07.973Z,52.50
2023-05-21T19:43:35.751Z,52.60
2023-05-21T19:46:04.169Z,52.60
2023-05-21T19:48:35.183Z,52.60
2023-05-21T19:51:03.321Z,52.80
2023-05-21T19:53:33.391Z,52.80
2023-05-21T19:56:01.739Z,52.80
2023-05-21T19:58:30.611Z,52.80
2023-05-21T20:01:01.222Z,52.90
2023-05-21T20:03:35.935Z,52.90
2023-05-21T20:06:04.581Z,53.00
2023-05-21T20:08:32.743Z,53.00
2023-05-21T20:11:01.917Z,53.10
2023-05-21T20:13:29.656Z,53.20
2023-05-21T20:15:57.861Z,53.40
2023-05-21T20:18:25.743Z,53.40
2023-05-21T20:20:55.721Z,53.50
2023-05-21T20:23:23.496Z,53.50
2023-05-21T20:25:53.624Z,53.60
2023-05-21T20:28:23.265Z,53.60
2023-05-21T20:30:58.945Z,53.70
2023-05-21T20:33:32.867Z,53.80
2023-05-21T20:36:01.618Z,53.90
2023-05-21T20:38:32.648Z,54.00
2023-05-21T20:41:03.890Z,54.00
2023-05-21T20:43:32.179Z,54.20
2023-05-21T20:46:00.457Z,54.20
2023-05-21T20:48:30.959Z,54.30
2023-05-21T20:51:02.307Z,54.30
2023-05-21T20:53:31.582Z,54.40
2023-05-21T20:56:01.801Z,54.50
2023-05-21T20:58:30.435Z,54.50
2023-05-21T21:00:58.615Z,54.50
2023-05-21T21:03:30.079Z,54.60
2023-05-21T21:06:01.448Z,54.60
2023-05-21T21:08:29.114Z,54.70
2023-05-21T21:10:57.268Z,54.70
2023-05-21T21:13:24.990Z,54.80
2023-05-21T21:15:53.048Z,54.80
2023-05-21T21:18:20.680Z,55.00
2023-05-21T21:20:49.988Z,55.10
2023-05-21T21:23:18.332Z,55.20
2023-05-21T21:25:47.901Z,55.30
2023-05-21T21:28:16.371Z,55.50
2023-05-21T21:30:45.244Z,55.50
2023-05-21T21:33:14.606Z,55.50
2023-05-21T21:35:42.867Z,55.60
2023-05-21T21:38:10.492Z,55.60
2023-05-21T21:40:38.669Z,55.70
2023-05-21T21:43:06.731Z,55.70
2023-05-21T21:45:34.707Z,55.70
2023-05-21T21:48:02.866Z,55.70
2023-05-21T21:50:30.871Z,55.80
2023-05-21T21:52:58.442Z,55.80
2023-05-21T21:55:26.508Z,55.80
2023-05-21T21:57:54.130Z,55.90
2023-05-21T22:00:26.842Z,55.90
2023-05-21T22:02:54.726Z,56.10
2023-05-21T22:05:22.942Z,56.40
2023-05-21T22:07:51.776Z,56.40
2023-05-21T22:10:19.804Z,56.50
2023-05-21T22:12:47.555Z,56.50
2023-05-21T22:15:28.873Z,56.50
2023-05-21T22:17:56.886Z,56.50
2023-05-21T22:20:29.575Z,56.60
2023-05-21T22:22:58.177Z,56.70
2023-05-21T22:25:26.591Z,56.70
2023-05-21T22:27:54.288Z,56.80
2023-05-21T22:30:22.319Z,56.80
2023-05-21T22:32:49.927Z,56.90
2023-05-21T22:35:19.411Z,56.90
2023-05-21T22:37:47.245Z,56.90
2023-05-21T22:40:15.340Z,57.00
2023-05-21T22:42:45.097Z,57.00
2023-05-21T22:45:13.140Z,57.00
2023-05-21T22:47:41.080Z,57.10
2023-05-21T22:50:10.547Z,57.20
2023-05-21T22:52:38.726Z,57.30
2023-05-21T22:55:06.998Z,57.50
2023-05-21T22:57:34.893Z,57.60
2023-05-21T23:00:02.760Z,57.70
2023-05-21T23:02:30.634Z,57.70
2023-05-21T23:04:58.645Z,57.70
2023-05-21T23:07:26.307Z,57.90
2023-05-21T23:09:54.466Z,58.00
2023-05-21T23:12:22.162Z,58.10
2023-05-21T23:14:50.187Z,58.20
2023-05-21T23:17:36.463Z,58.50
2023-05-21T23:20:05.865Z,58.70
2023-05-21T23:22:33.617Z,58.70
2023-05-21T23:25:01.911Z,58.90
2023-05-21T23:27:29.674Z,58.90
2023-05-21T23:29:57.669Z,59.00
2023-05-21T23:32:25.450Z,59.20
2023-05-21T23:34:53.504Z,59.20
2023-05-21T23:37:21.413Z,59.20
2023-05-21T23:39:49.950Z,59.20
2023-05-21T23:42:19.368Z,59.20
2023-05-21T23:44:47.432Z,59.10
2023-05-21T23:47:15.056Z,59.10
2023-05-21T23:49:42.906Z,59.00
2023-05-21T23:52:13.317Z,59.00
2023-05-21T23:54:41.791Z,59.00
2023-05-21T23:57:09.653Z,59.20
2023-05-21T23:59:37.744Z,58.90
